createdAt,value
2019-02-08T00:01:15.917Z,49.67
2019-02-08T00:02:22.655Z,48.75
2019-02-08T00:03:29.962Z,46.13
2019-02-08T00:04:36.302Z,44.55
2019-02-08T00:05:42.802Z,44.27
2019-02-08T00:06:49.665Z,51.75
2019-02-08T00:07:56.300Z,47.70
2019-02-08T00:09:02.837Z,43.23
2019-02-08T00:10:10.554Z,45.38
2019-02-08T00:11:17.118Z,45.58
2019-02-08T00:12:23.534Z,44.67
2019-02-08T00:13:30.052Z,45.45
2019-02-08T00:14:36.470Z,41.77
2019-02-08T00:15:43.028Z,44.33
2019-02-08T00:16:49.562Z,53.30
2019-02-08T00:17:55.964Z,45.38
2019-02-08T00:19:02.319Z,46.37
2019-02-08T00:20:10.767Z,48.00
2019-02-08T00:21:17.168Z,43.48
2019-02-08T00:22:23.504Z,45.40
2019-02-08T00:23:29.780Z,51.30
2019-02-08T00:24:36.162Z,44.77
2019-02-08T00:25:42.785Z,43.98
2019-02-08T00:26:49.182Z,45.03
2019-02-08T00:27:55.544Z,45.03
2019-02-08T00:29:01.974Z,43.05
2019-02-08T00:30:11.745Z,48.40
2019-02-08T00:31:18.175Z,49.53
2019-02-08T00:32:24.706Z,46.28
2019-02-08T00:33:32.512Z,43.70
2019-02-08T00:34:39.271Z,44.00
2019-02-08T00:35:45.713Z,46.08
2019-02-08T00:36:52.070Z,44.08
2019-02-08T00:37:59.544Z,45.08
2019-02-08T00:39:10.673Z,46.25
2019-02-08T00:40:17.540Z,44.58
2019-02-08T00:41:23.931Z,43.58
2019-02-08T00:42:31.440Z,46.13
2019-02-08T00:43:38.025Z,45.78
2019-02-08T00:44:45.469Z,43.85
2019-02-08T00:45:51.958Z,41.37
2019-02-08T00:46:58.304Z,42.85
2019-02-08T00:48:04.769Z,41.58
2019-02-08T00:49:11.145Z,44.15
2019-02-08T00:50:19.411Z,44.95
2019-02-08T00:51:25.655Z,46.85
2019-02-08T00:52:33.353Z,41.33
2019-02-08T00:53:39.635Z,44.85
2019-02-08T00:54:46.061Z,42.53
2019-02-08T00:55:52.310Z,45.33
2019-02-08T00:56:58.469Z,44.13
2019-02-08T00:58:05.256Z,49.55
2019-02-08T00:59:12.929Z,45.50
2019-02-08T01:00:19.754Z,42.73
2019-02-08T01:01:26.010Z,48.05
2019-02-08T01:02:32.466Z,43.30
2019-02-08T01:03:38.973Z,45.58
2019-02-08T01:04:45.440Z,42.88
2019-02-08T01:05:52.320Z,46.42
2019-02-08T01:06:59.053Z,47.33
2019-02-08T01:08:05.762Z,46.05
2019-02-08T01:09:11.986Z,45.73
2019-02-08T01:10:24.629Z,46.23
2019-02-08T01:11:31.162Z,41.60
2019-02-08T01:12:37.592Z,45.20
2019-02-08T01:13:44.998Z,40.85
2019-02-08T01:14:51.416Z,47.70
2019-02-08T01:15:58.598Z,47.38
2019-02-08T01:17:05.206Z,46.00
2019-02-08T01:18:11.633Z,43.23
2019-02-08T01:19:17.986Z,46.08
2019-02-08T01:20:24.566Z,42.20
2019-02-08T01:21:30.969Z,46.45
2019-02-08T01:22:37.283Z,44.10
2019-02-08T01:23:43.674Z,45.17
2019-02-08T01:24:50.054Z,45.05
2019-02-08T01:25:56.500Z,45.50
2019-02-08T01:27:02.882Z,48.87
2019-02-08T01:28:10.121Z,47.08
2019-02-08T01:29:17.659Z,47.53
2019-02-08T01:30:25.983Z,46.65
2019-02-08T01:31:32.593Z,49.45
2019-02-08T01:32:39.706Z,47.88
2019-02-08T01:33:46.221Z,47.00
2019-02-08T01:34:52.663Z,48.25
2019-02-08T01:35:59.082Z,48.40
2019-02-08T01:37:05.607Z,45.83
2019-02-08T01:38:11.993Z,48.10
2019-02-08T01:39:18.318Z,45.50
2019-02-08T01:40:26.887Z,47.50
2019-02-08T01:41:33.233Z,43.25
2019-02-08T01:42:39.614Z,49.35
2019-02-08T01:43:45.909Z,49.40
2019-02-08T01:44:52.262Z,46.90
2019-02-08T01:45:58.682Z,46.73
2019-02-08T01:47:05.025Z,48.02
2019-02-08T01:48:11.548Z,53.30
2019-02-08T01:49:17.940Z,48.28
2019-02-08T01:50:25.901Z,43.68
2019-02-08T01:51:32.343Z,50.03
2019-02-08T01:52:38.806Z,49.95
2019-02-08T01:53:48.719Z,48.70
2019-02-08T01:54:53.298Z,50.73
2019-02-08T01:55:59.623Z,48.38
2019-02-08T01:57:06.123Z,44.67
2019-02-08T01:58:12.574Z,48.78
2019-02-08T01:59:18.982Z,46.63
2019-02-08T02:00:39.552Z,47.03
2019-02-08T02:01:46.013Z,48.38
2019-02-08T02:02:52.373Z,49.67
2019-02-08T02:03:58.691Z,44.65
2019-02-08T02:05:06.560Z,43.08
2019-02-08T02:06:12.936Z,44.25
2019-02-08T02:07:19.191Z,46.68
2019-02-08T02:08:25.672Z,51.18
2019-02-08T02:09:32.316Z,45.80
2019-02-08T02:10:40.940Z,49.35
2019-02-08T02:11:47.282Z,43.80
2019-02-08T02:12:53.810Z,47.62
2019-02-08T02:14:01.043Z,45.65
2019-02-08T02:15:08.502Z,48.65
2019-02-08T02:16:14.800Z,42.88
2019-02-08T02:17:21.083Z,45.40
2019-02-08T02:18:27.370Z,43.48
2019-02-08T02:19:33.632Z,50.05
2019-02-08T02:20:41.054Z,45.70
2019-02-08T02:21:47.479Z,48.68
2019-02-08T02:22:53.874Z,46.83
2019-02-08T02:24:00.523Z,46.48
2019-02-08T02:25:08.022Z,43.65
2019-02-08T02:26:14.362Z,45.92
2019-02-08T02:27:20.592Z,44.42
2019-02-08T02:28:28.077Z,48.25
2019-02-08T02:29:34.417Z,44.67
2019-02-08T02:30:40.874Z,44.18
2019-02-08T02:31:47.455Z,45.03
2019-02-08T02:32:54.062Z,41.70
2019-02-08T02:34:00.471Z,52.08
2019-02-08T02:35:08.251Z,48.08
2019-02-08T02:36:14.717Z,45.70
2019-02-08T02:37:21.153Z,47.65
2019-02-08T02:38:27.580Z,47.98
2019-02-08T02:39:33.947Z,45.10
2019-02-08T02:40:40.418Z,44.98
2019-02-08T02:41:46.752Z,44.15
2019-02-08T02:42:53.665Z,45.30
2019-02-08T02:44:00.093Z,44.45
2019-02-08T02:45:12.799Z,45.92
2019-02-08T02:46:19.197Z,42.23
2019-02-08T02:47:25.634Z,48.60
2019-02-08T02:48:31.880Z,43.85
2019-02-08T02:49:38.142Z,43.65
2019-02-08T02:50:44.495Z,38.05
2019-02-08T02:51:50.901Z,39.80
2019-02-08T02:52:57.545Z,46.48
2019-02-08T02:54:05.109Z,47.17
2019-02-08T02:55:12.410Z,43.68
2019-02-08T02:56:18.834Z,46.33
2019-02-08T02:57:25.181Z,48.45
2019-02-08T02:58:31.737Z,46.02
2019-02-08T02:59:38.062Z,46.40
2019-02-08T03:00:46.171Z,45.70
2019-02-08T03:01:52.551Z,46.35
2019-02-08T03:02:59.528Z,43.13
2019-02-08T03:04:06.494Z,48.63
2019-02-08T03:05:13.113Z,46.60
2019-02-08T03:06:19.506Z,47.67
2019-02-08T03:07:26.043Z,48.70
2019-02-08T03:08:32.394Z,45.65
2019-02-08T03:09:38.813Z,48.98
2019-02-08T03:10:45.336Z,45.88
2019-02-08T03:11:51.581Z,45.55
2019-02-08T03:12:57.914Z,47.98
2019-02-08T03:14:04.298Z,44.93
2019-02-08T03:15:11.740Z,43.98
2019-02-08T03:16:18.270Z,50.80
2019-02-08T03:17:24.494Z,49.42
2019-02-08T03:18:30.954Z,48.10
2019-02-08T03:19:37.393Z,40.95
2019-02-08T03:20:43.792Z,46.95
2019-02-08T03:21:50.138Z,44.60
2019-02-08T03:22:56.503Z,47.35
2019-02-08T03:24:02.750Z,46.58
2019-02-08T03:25:10.276Z,44.75
2019-02-08T03:26:17.872Z,47.33
2019-02-08T03:27:24.476Z,45.38
2019-02-08T03:28:31.015Z,50.70
2019-02-08T03:29:37.345Z,47.35
2019-02-08T03:30:47.807Z,47.65
2019-02-08T03:31:54.157Z,47.58
2019-02-08T03:33:00.625Z,51.08
2019-02-08T03:34:07.068Z,42.70
2019-02-08T03:35:16.179Z,52.33
2019-02-08T03:36:22.606Z,42.45
2019-02-08T03:37:28.994Z,44.27
2019-02-08T03:38:35.595Z,47.50
2019-02-08T03:39:42.045Z,48.30
2019-02-08T03:40:48.379Z,46.33
2019-02-08T03:41:54.801Z,48.17
2019-02-08T03:43:01.224Z,49.88
2019-02-08T03:44:07.805Z,50.00
2019-02-08T03:45:14.782Z,49.67
2019-02-08T03:46:21.202Z,46.05
2019-02-08T03:47:27.480Z,46.35
2019-02-08T03:48:33.920Z,50.03
2019-02-08T03:49:40.325Z,42.23
2019-02-08T03:50:46.716Z,48.00
2019-02-08T03:51:53.053Z,49.58
2019-02-08T03:52:59.411Z,49.40
2019-02-08T03:54:06.219Z,50.88
2019-02-08T03:55:14.144Z,51.20
2019-02-08T03:56:20.544Z,53.50
2019-02-08T03:57:27.033Z,50.20
2019-02-08T03:58:33.365Z,48.38
2019-02-08T03:59:39.683Z,50.35
2019-02-08T04:01:03.514Z,49.60
2019-02-08T04:02:11.011Z,49.38
2019-02-08T04:03:17.480Z,47.20
2019-02-08T04:04:23.938Z,48.10
2019-02-08T04:05:30.490Z,51.63
2019-02-08T04:06:36.872Z,49.88
2019-02-08T04:07:43.235Z,52.43
2019-02-08T04:08:49.751Z,48.98
2019-02-08T04:09:56.161Z,49.20
2019-02-08T04:11:02.561Z,49.77
2019-02-08T04:12:09.199Z,50.75
2019-02-08T04:13:16.054Z,47.83
2019-02-08T04:14:22.511Z,51.35
2019-02-08T04:15:29.026Z,53.52
2019-02-08T04:16:35.267Z,52.80
2019-02-08T04:17:41.448Z,46.25
2019-02-08T04:18:47.842Z,44.63
2019-02-08T04:19:54.334Z,48.17
2019-02-08T04:21:00.860Z,48.80
2019-02-08T04:22:07.433Z,48.83
2019-02-08T04:23:13.772Z,44.95
2019-02-08T04:24:20.141Z,48.42
2019-02-08T04:25:26.724Z,50.75
2019-02-08T04:26:33.138Z,47.05
2019-02-08T04:27:39.415Z,48.68
2019-02-08T04:28:45.691Z,46.28
2019-02-08T04:29:52.173Z,46.85
2019-02-08T04:30:58.681Z,46.25
2019-02-08T04:32:05.111Z,45.20
2019-02-08T04:33:11.471Z,48.23
2019-02-08T04:34:17.827Z,42.13
2019-02-08T04:35:24.314Z,47.50
2019-02-08T04:36:32.089Z,44.80
2019-02-08T04:37:38.453Z,47.53
2019-02-08T04:38:44.898Z,47.10
2019-02-08T04:39:51.347Z,47.40
2019-02-08T04:40:57.645Z,41.73
2019-02-08T04:42:04.209Z,50.88
2019-02-08T04:43:10.631Z,43.55
2019-02-08T04:44:17.209Z,48.23
2019-02-08T04:45:23.785Z,49.18
2019-02-08T04:46:30.286Z,48.73
2019-02-08T04:47:36.707Z,43.78
2019-02-08T04:48:43.000Z,49.42
2019-02-08T04:49:49.093Z,42.15
2019-02-08T04:50:55.664Z,51.28
2019-02-08T04:52:01.956Z,48.58
2019-02-08T04:53:08.332Z,50.10
2019-02-08T04:54:14.886Z,45.92
2019-02-08T04:55:21.580Z,45.23
2019-02-08T04:56:28.152Z,47.62
2019-02-08T04:57:34.603Z,45.65
2019-02-08T04:58:41.043Z,45.03
2019-02-08T04:59:47.621Z,51.92
2019-02-08T05:00:53.935Z,47.90
2019-02-08T05:02:00.352Z,49.15
2019-02-08T05:03:09.382Z,51.40
2019-02-08T05:04:15.927Z,45.75
2019-02-08T05:05:22.352Z,51.58
2019-02-08T05:06:28.713Z,52.23
2019-02-08T05:07:34.972Z,46.50
2019-02-08T05:08:41.233Z,46.23
2019-02-08T05:09:47.483Z,49.73
2019-02-08T05:10:53.974Z,51.18
2019-02-08T05:12:00.278Z,49.15
2019-02-08T05:13:07.191Z,51.10
2019-02-08T05:14:22.737Z,44.23
2019-02-08T05:15:31.197Z,47.67
2019-02-08T05:16:37.637Z,48.20
2019-02-08T05:17:45.094Z,47.45
2019-02-08T05:18:51.593Z,46.10
2019-02-08T05:19:58.316Z,48.83
2019-02-08T05:21:04.857Z,48.00
2019-02-08T05:22:11.491Z,50.67
2019-02-08T05:23:18.042Z,48.23
2019-02-08T05:24:26.121Z,47.67
2019-02-08T05:25:32.751Z,45.85
2019-02-08T05:26:39.123Z,48.38
2019-02-08T05:27:45.930Z,48.10
2019-02-08T05:28:52.498Z,47.98
2019-02-08T05:29:58.865Z,48.95
2019-02-08T05:31:05.279Z,50.90
2019-02-08T05:32:11.696Z,53.42
2019-02-08T05:33:19.309Z,44.55
2019-02-08T05:34:25.544Z,44.65
2019-02-08T05:35:31.953Z,44.75
2019-02-08T05:36:38.158Z,45.05
2019-02-08T05:37:44.602Z,50.40
2019-02-08T05:38:50.838Z,47.95
2019-02-08T05:39:57.185Z,43.30
2019-02-08T05:41:03.604Z,49.63
2019-02-08T05:42:09.911Z,53.10
2019-02-08T05:43:16.456Z,50.52
2019-02-08T05:44:22.851Z,55.92
2019-02-08T05:45:29.368Z,49.20
2019-02-08T05:46:36.228Z,49.88
2019-02-08T05:47:43.043Z,50.10
2019-02-08T05:48:49.344Z,49.50
2019-02-08T05:49:57.086Z,46.85
2019-02-08T05:51:03.307Z,48.90
2019-02-08T05:52:09.814Z,51.48
2019-02-08T05:53:16.243Z,50.67
2019-02-08T05:54:22.610Z,52.45
2019-02-08T05:55:30.613Z,51.85
2019-02-08T05:56:37.082Z,47.93
2019-02-08T05:57:43.994Z,44.45
2019-02-08T05:58:52.223Z,52.23
2019-02-08T05:59:58.454Z,51.20
2019-02-08T06:01:05.009Z,43.05
2019-02-08T06:02:11.421Z,48.85
2019-02-08T06:03:17.805Z,46.30
2019-02-08T06:04:24.257Z,50.92
2019-02-08T06:05:44.197Z,46.63
2019-02-08T06:06:52.197Z,47.45
2019-02-08T06:07:58.415Z,48.40
2019-02-08T06:09:07.145Z,49.63
2019-02-08T06:10:13.740Z,45.63
2019-02-08T06:11:20.050Z,47.85
2019-02-08T06:12:26.419Z,47.23
2019-02-08T06:13:32.883Z,50.30
2019-02-08T06:14:39.219Z,46.28
2019-02-08T06:15:45.568Z,46.55
2019-02-08T06:16:52.983Z,46.85
2019-02-08T06:17:59.459Z,51.53
2019-02-08T06:19:06.123Z,50.52
2019-02-08T06:20:14.192Z,45.38
2019-02-08T06:21:20.517Z,49.70
2019-02-08T06:22:26.883Z,49.48
2019-02-08T06:23:33.416Z,47.45
2019-02-08T06:24:40.283Z,48.25
2019-02-08T06:25:46.764Z,47.35
2019-02-08T06:26:53.091Z,49.70
2019-02-08T06:27:59.510Z,50.43
2019-02-08T06:29:05.958Z,47.48
2019-02-08T06:30:15.714Z,47.10
2019-02-08T06:31:22.283Z,42.98
2019-02-08T06:32:28.762Z,49.40
2019-02-08T06:33:36.183Z,52.20
2019-02-08T06:34:42.640Z,53.60
2019-02-08T06:35:48.985Z,50.58
2019-02-08T06:36:55.532Z,48.95
2019-02-08T06:38:01.971Z,51.25
2019-02-08T06:39:10.215Z,47.80
2019-02-08T06:40:19.028Z,54.45
2019-02-08T06:41:25.152Z,53.78
2019-02-08T06:42:31.600Z,51.33
2019-02-08T06:43:38.016Z,46.53
2019-02-08T06:44:44.452Z,49.53
2019-02-08T06:45:50.721Z,51.15
2019-02-08T06:46:56.962Z,50.83
2019-02-08T06:48:03.455Z,47.25
2019-02-08T06:49:09.932Z,49.65
2019-02-08T06:50:17.997Z,44.65
2019-02-08T06:51:24.533Z,47.43
2019-02-08T06:52:33.961Z,48.52
2019-02-08T06:53:40.409Z,48.80
2019-02-08T06:54:47.262Z,51.77
2019-02-08T06:55:54.062Z,44.70
2019-02-08T06:57:18.307Z,50.03
2019-02-08T06:58:49.747Z,48.75
2019-02-08T07:00:18.337Z,46.18
2019-02-08T07:01:56.336Z,47.43
2019-02-08T07:03:25.000Z,43.50
2019-02-08T07:04:59.936Z,47.53
2019-02-08T07:06:40.488Z,45.92
2019-02-08T07:08:11.828Z,47.65
2019-02-08T07:09:33.127Z,46.75
2019-02-08T07:10:57.019Z,46.70
2019-02-08T07:12:34.697Z,47.90
2019-02-08T07:14:12.295Z,52.62
2019-02-08T07:15:43.832Z,50.58
2019-02-08T07:16:58.272Z,45.92
2019-02-08T07:18:17.931Z,55.03
2019-02-08T07:19:35.464Z,55.28
2019-02-08T07:20:55.422Z,57.03
2019-02-08T07:22:12.564Z,53.23
2019-02-08T07:23:36.799Z,59.60
2019-02-08T07:24:49.406Z,53.02
2019-02-08T07:26:30.281Z,56.65
2019-02-08T07:27:45.340Z,55.83
2019-02-08T07:29:02.761Z,56.18
2019-02-08T07:30:20.095Z,52.50
2019-02-08T07:31:48.535Z,56.65
2019-02-08T07:33:16.918Z,57.73
2019-02-08T07:34:46.131Z,57.73
2019-02-08T07:36:13.139Z,58.75
2019-02-08T07:37:38.235Z,55.00
2019-02-08T07:39:22.471Z,51.42
2019-02-08T07:41:00.175Z,51.75
2019-02-08T07:42:24.139Z,57.40
2019-02-08T07:43:44.017Z,52.83
2019-02-08T07:45:13.409Z,49.93
2019-02-08T07:46:42.187Z,54.90
2019-02-08T07:48:03.399Z,52.53
2019-02-08T07:49:15.574Z,50.85
2019-02-08T07:50:32.193Z,54.15
2019-02-08T07:51:53.278Z,51.13
2019-02-08T07:53:24.929Z,51.80
2019-02-08T07:55:07.635Z,55.95
2019-02-08T07:56:36.545Z,54.67
2019-02-08T07:58:09.291Z,50.90
2019-02-08T07:59:34.095Z,51.00
2019-02-08T08:01:14.746Z,49.48
2019-02-08T08:02:43.729Z,52.15
2019-02-08T08:04:27.980Z,57.30
2019-02-08T08:06:02.282Z,50.03
2019-02-08T08:07:19.619Z,53.13
2019-02-08T08:08:43.769Z,56.83
2019-02-08T08:09:58.123Z,58.10
2019-02-08T08:11:22.398Z,49.90
2019-02-08T08:12:40.011Z,51.15
2019-02-08T08:13:56.931Z,53.35
2019-02-08T08:15:22.528Z,51.80
2019-02-08T08:17:03.262Z,52.55
2019-02-08T08:18:38.405Z,54.23
2019-02-08T08:20:05.763Z,52.38
2019-02-08T08:21:30.636Z,54.20
2019-02-08T08:23:02.517Z,53.68
2019-02-08T08:24:28.615Z,46.65
2019-02-08T08:26:04.781Z,50.63
2019-02-08T08:27:36.011Z,48.63
2019-02-08T08:29:01.526Z,51.53
2019-02-08T08:30:22.726Z,52.88
2019-02-08T08:31:53.435Z,52.62
2019-02-08T08:33:15.990Z,51.28
2019-02-08T08:34:48.866Z,49.95
2019-02-08T08:36:53.296Z,55.08
2019-02-08T08:38:36.431Z,52.03
2019-02-08T08:40:38.657Z,55.33
2019-02-08T08:42:14.759Z,55.98
2019-02-08T08:43:56.518Z,54.03
2019-02-08T08:45:54.551Z,52.65
2019-02-08T08:47:37.167Z,51.33
2019-02-08T08:49:22.956Z,49.50
2019-02-08T08:51:06.721Z,48.25
2019-02-08T08:52:54.618Z,49.48
2019-02-08T08:54:43.420Z,46.23
2019-02-08T08:56:12.887Z,49.15
2019-02-08T08:57:35.389Z,45.60
2019-02-08T08:59:23.738Z,45.78
2019-02-08T09:01:14.339Z,47.10
2019-02-08T09:02:34.022Z,44.35
2019-02-08T09:04:16.708Z,44.53
2019-02-08T09:06:09.660Z,47.88
2019-02-08T09:07:46.980Z,47.93
2019-02-08T09:09:25.949Z,49.70
2019-02-08T09:11:12.052Z,45.90
2019-02-08T09:12:44.364Z,45.80
2019-02-08T09:14:23.024Z,45.55
2019-02-08T09:16:13.106Z,46.45
2019-02-08T09:17:52.963Z,48.10
2019-02-08T09:19:27.268Z,47.45
2019-02-08T09:21:03.709Z,47.08
2019-02-08T09:22:57.473Z,49.45
2019-02-08T09:24:26.664Z,45.08
2019-02-08T09:26:15.014Z,47.67
2019-02-08T09:27:54.235Z,45.40
2019-02-08T09:29:53.319Z,49.63
2019-02-08T09:31:44.691Z,47.03
2019-02-08T09:33:26.531Z,40.63
2019-02-08T09:35:02.844Z,46.23
2019-02-08T09:37:00.331Z,45.58
2019-02-08T09:38:47.041Z,46.18
2019-02-08T09:40:38.656Z,47.38
2019-02-08T09:42:12.237Z,47.90
2019-02-08T09:44:00.381Z,44.27
2019-02-08T09:45:45.061Z,46.83
2019-02-08T09:47:27.139Z,43.87
2019-02-08T09:49:26.539Z,46.02
2019-02-08T09:50:58.983Z,41.33
2019-02-08T09:52:44.596Z,44.75
2019-02-08T09:54:24.412Z,43.15
2019-02-08T09:56:23.400Z,48.02
2019-02-08T09:58:19.520Z,42.60
2019-02-08T10:00:18.830Z,45.90
2019-02-08T10:02:07.810Z,46.98
2019-02-08T10:03:57.549Z,41.88
2019-02-08T10:05:44.803Z,47.43
2019-02-08T10:07:42.671Z,46.20
2019-02-08T10:09:24.314Z,40.52
2019-02-08T10:11:16.952Z,51.37
2019-02-08T10:12:58.840Z,46.68
2019-02-08T10:14:57.428Z,41.08
2019-02-08T10:16:39.107Z,47.67
2019-02-08T10:18:20.998Z,42.75
2019-02-08T10:19:59.723Z,46.85
2019-02-08T10:21:37.497Z,42.73
2019-02-08T10:23:24.395Z,45.28
2019-02-08T10:25:20.432Z,46.35
2019-02-08T10:26:56.419Z,42.27
2019-02-08T10:28:42.250Z,40.35
2019-02-08T10:30:31.520Z,45.67
2019-02-08T10:32:29.073Z,45.83
2019-02-08T10:34:17.814Z,44.20
2019-02-08T10:36:04.727Z,41.00
2019-02-08T10:37:46.918Z,42.38
2019-02-08T10:39:29.290Z,44.35
2019-02-08T10:41:17.386Z,40.43
2019-02-08T10:43:15.638Z,48.20
2019-02-08T10:45:08.996Z,44.42
2019-02-08T10:46:52.912Z,48.25
2019-02-08T10:48:33.890Z,49.13
2019-02-08T10:50:33.215Z,43.83
2019-02-08T10:52:15.280Z,40.12
2019-02-08T10:54:10.791Z,41.50
2019-02-08T10:56:14.797Z,41.53
2019-02-08T10:58:06.423Z,45.52
2019-02-08T11:00:09.187Z,44.95
2019-02-08T11:02:26.814Z,45.00
2019-02-08T11:04:18.743Z,47.17
2019-02-08T11:05:54.217Z,38.80
2019-02-08T11:07:56.747Z,42.30
2019-02-08T11:09:52.522Z,40.20
2019-02-08T11:11:35.907Z,44.75
2019-02-08T11:13:19.210Z,48.42
2019-02-08T11:15:17.078Z,47.35
2019-02-08T11:17:06.342Z,46.70
2019-02-08T11:19:08.807Z,47.08
2019-02-08T11:20:15.391Z,42.62
2019-02-08T11:21:21.736Z,43.23
2019-02-08T11:22:28.435Z,43.38
2019-02-08T11:23:36.012Z,51.83
2019-02-08T11:24:42.735Z,40.40
2019-02-08T11:25:49.104Z,42.85
2019-02-08T11:26:56.451Z,44.63
2019-02-08T11:28:02.833Z,39.70
2019-02-08T11:29:09.421Z,49.53
2019-02-08T11:30:20.059Z,44.53
2019-02-08T11:31:26.361Z,45.52
2019-02-08T11:32:42.862Z,44.23
2019-02-08T11:33:40.641Z,42.30
2019-02-08T11:34:46.970Z,42.62
2019-02-08T11:35:53.509Z,49.98
2019-02-08T11:36:59.891Z,42.85
2019-02-08T11:38:06.290Z,41.77
2019-02-08T11:39:16.373Z,48.90
2019-02-08T11:40:26.077Z,44.80
2019-02-08T11:41:32.753Z,42.33
2019-02-08T11:42:39.273Z,46.18
2019-02-08T11:43:45.731Z,50.33
2019-02-08T11:44:52.066Z,37.88
2019-02-08T11:45:58.653Z,45.05
2019-02-08T11:47:05.145Z,42.43
2019-02-08T11:48:11.510Z,42.23
2019-02-08T11:49:18.002Z,39.98
2019-02-08T11:50:24.731Z,41.37
2019-02-08T11:51:31.333Z,40.75
2019-02-08T11:52:37.916Z,40.05
2019-02-08T11:53:44.363Z,41.00
2019-02-08T11:54:50.773Z,40.45
2019-02-08T11:55:57.295Z,37.55
2019-02-08T11:57:03.811Z,41.85
2019-02-08T11:58:10.183Z,40.63
2019-02-08T11:59:16.461Z,46.88
2019-02-08T12:00:39.082Z,42.38
2019-02-08T12:01:49.941Z,43.40
2019-02-08T12:02:56.439Z,44.08
2019-02-08T12:04:03.010Z,43.08
2019-02-08T12:05:09.752Z,38.25
2019-02-08T12:06:16.222Z,40.85
2019-02-08T12:07:22.736Z,43.85
2019-02-08T12:08:29.221Z,42.65
2019-02-08T12:09:35.634Z,43.25
2019-02-08T12:10:41.984Z,36.58
2019-02-08T12:11:48.634Z,41.83
2019-02-08T12:12:55.027Z,43.33
2019-02-08T12:14:01.662Z,43.20
2019-02-08T12:15:08.963Z,40.92
2019-02-08T12:16:15.574Z,44.38
2019-02-08T12:17:21.948Z,42.17
2019-02-08T12:18:28.469Z,41.00
2019-02-08T12:19:34.834Z,41.92
2019-02-08T12:20:41.504Z,39.40
2019-02-08T12:21:47.984Z,36.98
2019-02-08T12:22:54.507Z,38.05
2019-02-08T12:24:00.902Z,40.90
2019-02-08T12:25:08.098Z,36.63
2019-02-08T12:26:14.601Z,39.27
2019-02-08T12:27:21.185Z,40.20
2019-02-08T12:28:27.702Z,36.63
2019-02-08T12:29:34.059Z,40.20
2019-02-08T12:30:41.359Z,44.48
2019-02-08T12:31:47.815Z,37.45
2019-02-08T12:32:54.568Z,35.23
2019-02-08T12:34:00.879Z,40.25
2019-02-08T12:35:08.400Z,37.73
2019-02-08T12:36:14.992Z,37.50
2019-02-08T12:37:21.517Z,35.88
2019-02-08T12:38:27.946Z,35.98
2019-02-08T12:39:34.921Z,37.35
2019-02-08T12:40:41.627Z,38.85
2019-02-08T12:41:48.119Z,40.48
2019-02-08T12:42:54.486Z,42.50
2019-02-08T12:44:00.919Z,37.30
2019-02-08T12:45:08.256Z,35.25
2019-02-08T12:46:14.683Z,35.85
2019-02-08T12:47:21.177Z,35.73
2019-02-08T12:48:27.722Z,41.70
2019-02-08T12:49:34.204Z,41.45
2019-02-08T12:50:40.721Z,38.00
2019-02-08T12:51:47.516Z,36.17
2019-02-08T12:52:53.995Z,39.90
2019-02-08T12:54:00.402Z,39.33
2019-02-08T12:55:07.875Z,38.78
2019-02-08T12:56:15.284Z,41.55
2019-02-08T12:57:21.975Z,41.15
2019-02-08T12:58:28.482Z,35.43
2019-02-08T12:59:35.278Z,36.73
2019-02-08T13:00:41.854Z,37.10
2019-02-08T13:01:48.364Z,38.15
2019-02-08T13:02:54.475Z,38.08
2019-02-08T13:04:03.419Z,41.65
2019-02-08T13:05:11.103Z,35.15
2019-02-08T13:06:17.622Z,37.78
2019-02-08T13:07:24.376Z,36.15
2019-02-08T13:08:30.818Z,33.90
2019-02-08T13:09:37.291Z,34.08
2019-02-08T13:10:43.754Z,39.42
2019-02-08T13:11:50.278Z,42.20
2019-02-08T13:12:56.495Z,36.77
2019-02-08T13:14:03.044Z,35.92
2019-02-08T13:15:10.511Z,36.73
2019-02-08T13:16:16.770Z,41.50
2019-02-08T13:17:23.076Z,40.45
2019-02-08T13:18:29.545Z,34.78
2019-02-08T13:19:36.535Z,37.98
2019-02-08T13:20:42.880Z,37.33
2019-02-08T13:21:49.355Z,36.10
2019-02-08T13:22:56.035Z,33.70
2019-02-08T13:24:02.502Z,41.30
2019-02-08T13:25:09.354Z,37.98
2019-02-08T13:26:15.795Z,37.83
2019-02-08T13:27:22.334Z,40.88
2019-02-08T13:28:28.693Z,43.58
2019-02-08T13:29:35.273Z,40.38
2019-02-08T13:30:41.761Z,37.85
2019-02-08T13:31:48.294Z,36.50
2019-02-08T13:32:55.138Z,37.35
2019-02-08T13:34:01.551Z,39.45
2019-02-08T13:35:08.958Z,38.33
2019-02-08T13:36:16.870Z,35.33
2019-02-08T13:37:23.372Z,37.58
2019-02-08T13:38:29.839Z,35.70
2019-02-08T13:39:36.269Z,39.92
2019-02-08T13:40:42.974Z,41.95
2019-02-08T13:41:49.427Z,39.98
2019-02-08T13:42:55.882Z,32.95
2019-02-08T13:44:02.307Z,31.87
2019-02-08T13:45:09.077Z,31.20
2019-02-08T13:46:15.546Z,36.40
2019-02-08T13:47:21.790Z,31.62
2019-02-08T13:48:28.448Z,30.08
2019-02-08T13:49:34.983Z,33.83
2019-02-08T13:50:41.540Z,28.55
2019-02-08T13:51:47.932Z,31.00
2019-02-08T13:52:54.482Z,31.70
2019-02-08T13:54:01.062Z,34.98
2019-02-08T13:55:08.306Z,30.37
2019-02-08T13:56:14.665Z,27.02
2019-02-08T13:57:22.260Z,28.32
2019-02-08T13:58:28.557Z,29.37
2019-02-08T13:59:35.086Z,29.67
2019-02-08T14:00:41.982Z,25.80
2019-02-08T14:01:48.401Z,28.75
2019-02-08T14:02:54.960Z,27.75
2019-02-08T14:04:03.942Z,25.15
2019-02-08T14:05:11.162Z,29.48
2019-02-08T14:06:17.806Z,26.23
2019-02-08T14:07:25.374Z,26.33
2019-02-08T14:08:31.847Z,28.87
2019-02-08T14:09:38.419Z,29.18
2019-02-08T14:10:44.977Z,26.25
2019-02-08T14:11:51.517Z,25.05
2019-02-08T14:12:58.141Z,27.13
2019-02-08T14:14:04.460Z,25.08
2019-02-08T14:15:11.288Z,27.30
2019-02-08T14:16:17.923Z,28.15
2019-02-08T14:17:24.602Z,28.83
2019-02-08T14:18:30.911Z,24.15
2019-02-08T14:19:37.299Z,27.10
2019-02-08T14:20:43.833Z,28.50
2019-02-08T14:21:50.325Z,29.25
2019-02-08T14:22:57.133Z,26.90
2019-02-08T14:24:04.693Z,26.35
2019-02-08T14:25:12.566Z,28.38
2019-02-08T14:26:20.424Z,27.80
2019-02-08T14:27:27.065Z,30.08
2019-02-08T14:28:33.320Z,28.73
2019-02-08T14:29:39.910Z,27.50
2019-02-08T14:30:46.706Z,26.82
2019-02-08T14:31:53.333Z,27.27
2019-02-08T14:32:59.979Z,25.88
2019-02-08T14:34:06.542Z,26.12
2019-02-08T14:35:13.554Z,25.30
2019-02-08T14:36:20.096Z,25.17
2019-02-08T14:37:26.331Z,28.07
2019-02-08T14:38:32.866Z,27.77
2019-02-08T14:39:39.405Z,26.97
2019-02-08T14:40:46.040Z,25.25
2019-02-08T14:41:52.481Z,24.35
2019-02-08T14:42:59.730Z,26.73
2019-02-08T14:44:06.096Z,21.75
2019-02-08T14:45:13.466Z,28.35
2019-02-08T14:46:19.925Z,23.83
2019-02-08T14:47:26.561Z,25.97
2019-02-08T14:48:33.349Z,27.37
2019-02-08T14:49:40.643Z,29.27
2019-02-08T14:50:47.289Z,29.20
2019-02-08T14:51:53.744Z,32.15
2019-02-08T14:53:00.669Z,29.92
2019-02-08T14:54:08.533Z,26.90
2019-02-08T14:55:15.764Z,26.40
2019-02-08T14:56:22.364Z,27.60
2019-02-08T14:57:28.800Z,27.75
2019-02-08T14:58:35.237Z,28.15
2019-02-08T14:59:41.833Z,28.40
2019-02-08T15:00:48.274Z,30.02
2019-02-08T15:01:54.914Z,33.00
2019-02-08T15:03:01.272Z,36.38
2019-02-08T15:04:08.016Z,39.92
2019-02-08T15:05:15.442Z,40.95
2019-02-08T15:06:21.940Z,26.93
2019-02-08T15:07:28.498Z,33.98
2019-02-08T15:08:36.035Z,33.55
2019-02-08T15:09:42.693Z,35.92
2019-02-08T15:10:50.487Z,36.53
2019-02-08T15:11:56.846Z,34.83
2019-02-08T15:13:03.380Z,35.98
2019-02-08T15:14:09.864Z,32.60
2019-02-08T15:15:16.848Z,36.45
2019-02-08T15:16:23.336Z,38.02
2019-02-08T15:17:29.857Z,35.15
2019-02-08T15:18:36.246Z,37.55
2019-02-08T15:19:45.119Z,37.63
2019-02-08T15:20:51.635Z,39.55
2019-02-08T15:21:58.202Z,40.92
2019-02-08T15:23:05.022Z,40.03
2019-02-08T15:24:12.618Z,41.58
2019-02-08T15:25:20.913Z,42.93
2019-02-08T15:26:27.979Z,41.92
2019-02-08T15:27:34.625Z,43.02
2019-02-08T15:28:41.263Z,42.38
2019-02-08T15:29:47.744Z,40.48
2019-02-08T15:30:54.279Z,40.80
2019-02-08T15:32:00.709Z,35.15
2019-02-08T15:33:08.401Z,44.85
2019-02-08T15:34:15.040Z,39.60
2019-02-08T15:35:23.645Z,43.28
2019-02-08T15:36:30.107Z,45.20
2019-02-08T15:37:36.741Z,48.68
2019-02-08T15:38:43.177Z,47.85
2019-02-08T15:39:49.792Z,53.58
2019-02-08T15:40:57.702Z,45.85
2019-02-08T15:42:04.055Z,44.90
2019-02-08T15:43:11.512Z,52.10
2019-02-08T15:44:17.912Z,51.48
2019-02-08T15:45:25.153Z,53.58
2019-02-08T15:46:31.726Z,54.58